sensor_id;sensor_type;location;lat;lon;timestamp;pressure;altitude;pressure_sealevel;temperature;humidity
6028;BME280;3042;43.194;27.646;2023-03-21T00:00:37;101724.25;;;14.64;100.00
6028;BME280;3042;43.194;27.646;2023-03-21T00:03:05;101706.91;;;15.05;100.00
6028;BME280;3042;43.194;27.646;2023-03-21T00:05:33;101713.13;;;14.87;100.00
6028;BME280;3042;43.194;27.646;2023-03-21T00:08:00;101715.47;;;14.81;100.00
6028;BME280;3042;43.194;27.646;2023-03-21T00:10:27;101645.09;;;14.78;100.00
6028;BME280;3042;43.194;27.646;2023-03-21T00:12:55;101716.72;;;14.70;100.00
6028;BME280;3042;43.194;27.646;2023-03-21T00:15:23;101708.78;;;14.67;100.00
6028;BME280;3042;43.194;27.646;2023-03-21T00:17:53;101625.28;;;14.61;100.00
6028;BME280;3042;43.194;27.646;2023-03-21T00:20:24;101681.53;;;14.99;100.00
6028;BME280;3042;43.194;27.646;2023-03-21T00:22:51;101691.16;;;14.81;100.00
6028;BME280;3042;43.194;27.646;2023-03-21T00:25:18;101701.66;;;14.63;100.00
6028;BME280;3042;43.194;27.646;2023-03-21T00:27:45;101693.44;;;14.73;100.00
6028;BME280;3042;43.194;27.646;2023-03-21T00:30:12;101289.16;;;12.37;100.00
6028;BME280;3042;43.194;27.646;2023-03-21T00:32:39;101715.50;;;14.62;100.00
6028;BME280;3042;43.194;27.646;2023-03-21T00:35:07;101693.44;;;14.34;100.00
6028;BME280;3042;43.194;27.646;2023-03-21T00:37:36;101683.91;;;14.73;100.00
6028;BME280;3042;43.194;27.646;2023-03-21T00:40:04;101576.50;;;13.95;100.00
6028;BME280;3042;43.194;27.646;2023-03-21T00:42:34;101700.97;;;14.28;100.00
6028;BME280;3042;43.194;27.646;2023-03-21T00:45:01;101515.81;;;13.35;100.00
6028;BME280;3042;43.194;27.646;2023-03-21T00:47:28;101641.72;;;14.21;100.00
6028;BME280;3042;43.194;27.646;2023-03-21T00:49:55;101700.34;;;14.53;100.00
6028;BME280;3042;43.194;27.646;2023-03-21T00:52:22;101691.13;;;14.40;100.00
6028;BME280;3042;43.194;27.646;2023-03-21T00:54:51;101687.34;;;14.33;100.00
6028;BME280;3042;43.194;27.646;2023-03-21T00:57:18;101687.25;;;14.51;100.00
6028;BME280;3042;43.194;27.646;2023-03-21T00:59:45;101567.47;;;14.06;100.00
6028;BME280;3042;43.194;27.646;2023-03-21T01:02:12;101691.00;;;14.56;100.00
6028;BME280;3042;43.194;27.646;2023-03-21T01:04:47;101680.84;;;14.63;100.00
6028;BME280;3042;43.194;27.646;2023-03-21T01:07:14;101684.16;;;14.59;100.00
6028;BME280;3042;43.194;27.646;2023-03-21T01:09:41;101636.59;;;14.22;100.00
6028;BME280;3042;43.194;27.646;2023-03-21T01:12:09;101670.72;;;14.90;100.00
6028;BME280;3042;43.194;27.646;2023-03-21T01:14:36;101407.31;;;13.08;100.00
6028;BME280;3042;43.194;27.646;2023-03-21T01:17:04;101668.91;;;14.87;100.00
6028;BME280;3042;43.194;27.646;2023-03-21T01:19:31;101650.47;;;14.62;100.00
6028;BME280;3042;43.194;27.646;2023-03-21T01:21:59;101655.09;;;14.69;100.00
6028;BME280;3042;43.194;27.646;2023-03-21T01:24:26;101661.47;;;14.96;100.00
6028;BME280;3042;43.194;27.646;2023-03-21T01:26:53;101676.69;;;14.66;100.00
6028;BME280;3042;43.194;27.646;2023-03-21T01:29:21;101666.88;;;14.61;100.00
6028;BME280;3042;43.194;27.646;2023-03-21T01:31:48;101647.59;;;14.55;100.00
6028;BME280;3042;43.194;27.646;2023-03-21T01:34:15;101678.94;;;14.20;100.00
6028;BME280;3042;43.194;27.646;2023-03-21T01:36:42;101668.19;;;14.31;100.00
6028;BME280;3042;43.194;27.646;2023-03-21T01:39:09;101668.97;;;14.29;100.00
6028;BME280;3042;43.194;27.646;2023-03-21T01:41:38;101519.34;;;13.37;100.00
6028;BME280;3042;43.194;27.646;2023-03-21T01:44:05;101604.25;;;14.15;100.00
6028;BME280;3042;43.194;27.646;2023-03-21T01:46:41;101337.22;;;13.06;100.00
6028;BME280;3042;43.194;27.646;2023-03-21T01:49:15;101584.06;;;14.50;100.00
6028;BME280;3042;43.194;27.646;2023-03-21T01:51:47;101452.34;;;13.88;100.00
6028;BME280;3042;43.194;27.646;2023-03-21T01:54:20;101625.16;;;14.99;100.00
6028;BME280;3042;43.194;27.646;2023-03-21T01:56:50;101634.03;;;14.84;100.00
6028;BME280;3042;43.194;27.646;2023-03-21T01:59:20;101628.41;;;15.16;100.00
6028;BME280;3042;43.194;27.646;2023-03-21T02:01:52;101640.81;;;15.45;100.00
6028;BME280;3042;43.194;27.646;2023-03-21T02:04:19;101619.31;;;14.84;100.00
6028;BME280;3042;43.194;27.646;2023-03-21T02:06:56;101548.63;;;14.52;100.00
6028;BME280;3042;43.194;27.646;2023-03-21T02:09:27;101517.13;;;14.04;100.00
6028;BME280;3042;43.194;27.646;2023-03-21T02:11:58;101563.19;;;14.49;100.00
6028;BME280;3042;43.194;27.646;2023-03-21T02:14:25;101581.25;;;14.65;100.00
6028;BME280;3042;43.194;27.646;2023-03-21T02:17:00;101476.09;;;14.38;100.00
6028;BME280;3042;43.194;27.646;2023-03-21T02:22:48;101627.31;;;14.89;100.00
6028;BME280;3042;43.194;27.646;2023-03-21T02:28:35;101497.13;;;14.23;100.00
6028;BME280;3042;43.194;27.646;2023-03-21T02:31:17;101337.53;;;13.34;100.00
6028;BME280;3042;43.194;27.646;2023-03-21T02:34:31;101625.78;;;15.15;100.00
6028;BME280;3042;43.194;27.646;2023-03-21T02:37:18;101624.19;;;14.97;100.00
6028;BME280;3042;43.194;27.646;2023-03-21T02:40:04;101634.69;;;14.99;100.00
6028;BME280;3042;43.194;27.646;2023-03-21T02:42:40;101640.78;;;14.78;100.00
6028;BME280;3042;43.194;27.646;2023-03-21T02:45:15;101380.75;;;13.73;100.00
6028;BME280;3042;43.194;27.646;2023-03-21T02:47:47;101631.13;;;14.97;100.00
6028;BME280;3042;43.194;27.646;2023-03-21T02:50:21;101540.25;;;14.39;100.00
6028;BME280;3042;43.194;27.646;2023-03-21T02:52:53;101633.03;;;14.80;100.00
6028;BME280;3042;43.194;27.646;2023-03-21T02:55:23;101288.72;;;13.05;100.00
6028;BME280;3042;43.194;27.646;2023-03-21T02:57:53;101638.53;;;15.09;100.00
6028;BME280;3042;43.194;27.646;2023-03-21T03:00:24;101638.34;;;15.04;100.00
6028;BME280;3042;43.194;27.646;2023-03-21T03:02:52;101636.34;;;14.76;100.00
6028;BME280;3042;43.194;27.646;2023-03-21T03:05:21;101637.16;;;14.75;100.00
6028;BME280;3042;43.194;27.646;2023-03-21T03:07:58;101598.75;;;14.69;100.00
6028;BME280;3042;43.194;27.646;2023-03-21T03:10:42;101574.34;;;14.66;100.00
6028;BME280;3042;43.194;27.646;2023-03-21T03:13:23;101627.84;;;14.80;100.00
6028;BME280;3042;43.194;27.646;2023-03-21T03:16:02;101648.13;;;14.68;100.00
6028;BME280;3042;43.194;27.646;2023-03-21T03:18:40;101629.31;;;14.96;100.00
6028;BME280;3042;43.194;27.646;2023-03-21T03:21:15;101627.16;;;15.07;100.00
6028;BME280;3042;43.194;27.646;2023-03-21T03:23:48;101633.34;;;15.09;100.00
6028;BME280;3042;43.194;27.646;2023-03-21T03:26:20;101625.63;;;15.12;100.00
6028;BME280;3042;43.194;27.646;2023-03-21T03:28:51;101623.41;;;15.21;100.00
6028;BME280;3042;43.194;27.646;2023-03-21T03:31:22;101623.59;;;15.26;100.00
6028;BME280;3042;43.194;27.646;2023-03-21T03:33:54;101634.28;;;15.11;100.00
6028;BME280;3042;43.194;27.646;2023-03-21T03:36:23;101569.16;;;14.46;100.00
6028;BME280;3042;43.194;27.646;2023-03-21T03:38:53;101622.59;;;15.22;100.00
6028;BME280;3042;43.194;27.646;2023-03-21T03:41:25;101627.06;;;15.04;100.00
6028;BME280;3042;43.194;27.646;2023-03-21T03:43:55;101627.19;;;14.86;100.00
6028;BME280;3042;43.194;27.646;2023-03-21T03:46:27;101603.19;;;14.72;100.00
6028;BME280;3042;43.194;27.646;2023-03-21T03:48:58;101555.22;;;14.86;100.00
6028;BME280;3042;43.194;27.646;2023-03-21T03:51:28;101573.63;;;14.70;100.00
6028;BME280;3042;43.194;27.646;2023-03-21T03:54:00;101617.47;;;15.03;100.00
6028;BME280;3042;43.194;27.646;2023-03-21T03:56:30;101585.78;;;14.50;100.00
6028;BME280;3042;43.194;27.646;2023-03-21T03:58:57;101628.91;;;14.85;100.00
6028;BME280;3042;43.194;27.646;2023-03-21T04:01:24;101626.56;;;14.91;100.00
6028;BME280;3042;43.194;27.646;2023-03-21T04:03:52;101632.59;;;14.50;100.00
6028;BME280;3042;43.194;27.646;2023-03-21T04:06:19;101632.69;;;14.32;100.00
6028;BME280;3042;43.194;27.646;2023-03-21T04:08:46;101637.78;;;14.09;100.00
6028;BME280;3042;43.194;27.646;2023-03-21T04:11:16;101638.00;;;14.35;100.00
6028;BME280;3042;43.194;27.646;2023-03-21T04:13:43;101606.97;;;14.38;100.00
6028;BME280;3042;43.194;27.646;2023-03-21T04:16:11;101568.91;;;14.00;100.00
6028;BME280;3042;43.194;27.646;2023-03-21T04:18:38;101641.78;;;14.42;100.00
6028;BME280;3042;43.194;27.646;2023-03-21T04:21:08;101454.78;;;13.64;100.00
6028;BME280;3042;43.194;27.646;2023-03-21T04:23:35;101643.38;;;14.38;100.00
6028;BME280;3042;43.194;27.646;2023-03-21T04:26:03;101645.41;;;14.06;100.00
6028;BME280;3042;43.194;27.646;2023-03-21T04:28:32;101628.59;;;14.56;100.00
6028;BME280;3042;43.194;27.646;2023-03-21T04:31:00;101607.44;;;14.29;100.00
6028;BME280;3042;43.194;27.646;2023-03-21T04:33:28;101640.75;;;14.38;100.00
6028;BME280;3042;43.194;27.646;2023-03-21T04:35:55;101642.25;;;14.52;100.00
6028;BME280;3042;43.194;27.646;2023-03-21T04:38:24;101625.03;;;14.75;100.00
6028;BME280;3042;43.194;27.646;2023-03-21T04:40:55;101636.66;;;14.43;100.00
6028;BME280;3042;43.194;27.646;2023-03-21T04:43:22;101607.59;;;14.53;100.00
6028;BME280;3042;43.194;27.646;2023-03-21T04:45:51;101625.03;;;14.54;100.00
6028;BME280;3042;43.194;27.646;2023-03-21T04:48:18;101406.09;;;13.19;100.00
6028;BME280;3042;43.194;27.646;2023-03-21T04:50:49;101621.97;;;14.65;100.00
6028;BME280;3042;43.194;27.646;2023-03-21T04:53:16;101394.22;;;13.05;100.00
6028;BME280;3042;43.194;27.646;2023-03-21T04:55:43;101631.03;;;14.34;100.00
6028;BME280;3042;43.194;27.646;2023-03-21T04:58:10;101632.81;;;14.35;100.00
6028;BME280;3042;43.194;27.646;2023-03-21T05:00:38;101642.28;;;14.13;100.00
6028;BME280;3042;43.194;27.646;2023-03-21T05:03:06;101627.63;;;14.54;100.00
6028;BME280;3042;43.194;27.646;2023-03-21T05:05:35;101626.38;;;14.46;100.00
6028;BME280;3042;43.194;27.646;2023-03-21T05:08:02;101521.47;;;14.25;100.00
6028;BME280;3042;43.194;27.646;2023-03-21T05:10:29;101637.84;;;14.71;100.00
6028;BME280;3042;43.194;27.646;2023-03-21T05:12:56;101641.22;;;14.68;100.00
6028;BME280;3042;43.194;27.646;2023-03-21T05:15:23;101663.59;;;13.87;100.00
6028;BME280;3042;43.194;27.646;2023-03-21T05:17:50;101658.28;;;14.03;100.00
6028;BME280;3042;43.194;27.646;2023-03-21T05:20:19;101640.22;;;14.45;100.00
6028;BME280;3042;43.194;27.646;2023-03-21T05:22:46;101598.66;;;14.26;100.00
6028;BME280;3042;43.194;27.646;2023-03-21T05:25:16;101489.72;;;13.70;100.00
6028;BME280;3042;43.194;27.646;2023-03-21T05:28:00;101632.38;;;14.65;100.00
6028;BME280;3042;43.194;27.646;2023-03-21T05:30:27;101636.22;;;14.94;100.00
6028;BME280;3042;43.194;27.646;2023-03-21T05:32:55;101566.94;;;14.54;100.00
6028;BME280;3042;43.194;27.646;2023-03-21T05:35:24;101573.00;;;14.96;100.00
6028;BME280;3042;43.194;27.646;2023-03-21T05:37:51;101639.91;;;15.22;100.00
6028;BME280;3042;43.194;27.646;2023-03-21T05:40:19;101644.69;;;15.11;100.00
6028;BME280;3042;43.194;27.646;2023-03-21T05:42:47;101604.66;;;14.86;100.00
6028;BME280;3042;43.194;27.646;2023-03-21T05:45:15;101642.19;;;14.91;100.00
6028;BME280;3042;43.194;27.646;2023-03-21T05:47:42;101605.56;;;14.87;100.00
6028;BME280;3042;43.194;27.646;2023-03-21T05:50:10;101647.88;;;15.04;100.00
6028;BME280;3042;43.194;27.646;2023-03-21T05:52:40;101470.81;;;13.94;100.00
6028;BME280;3042;43.194;27.646;2023-03-21T05:55:07;101652.31;;;15.06;100.00
6028;BME280;3042;43.194;27.646;2023-03-21T05:57:35;101648.25;;;15.13;100.00
6028;BME280;3042;43.194;27.646;2023-03-21T06:00:06;101442.84;;;13.67;100.00
6028;BME280;3042;43.194;27.646;2023-03-21T06:02:34;101659.16;;;14.83;100.00
6028;BME280;3042;43.194;27.646;2023-03-21T06:05:01;101645.28;;;15.26;100.00
6028;BME280;3042;43.194;27.646;2023-03-21T06:07:28;101536.84;;;14.61;100.00
6028;BME280;3042;43.194;27.646;2023-03-21T06:09:57;101594.25;;;15.30;100.00
6028;BME280;3042;43.194;27.646;2023-03-21T06:12:24;101651.59;;;15.54;100.00
6028;BME280;3042;43.194;27.646;2023-03-21T06:14:51;101592.38;;;15.50;100.00
6028;BME280;3042;43.194;27.646;2023-03-21T06:17:18;101647.09;;;15.50;100.00
6028;BME280;3042;43.194;27.646;2023-03-21T06:19:45;101622.59;;;15.22;100.00
6028;BME280;3042;43.194;27.646;2023-03-21T06:22:13;101669.38;;;15.87;100.00
6028;BME280;3042;43.194;27.646;2023-03-21T06:24:40;101661.34;;;16.29;100.00
6028;BME280;3042;43.194;27.646;2023-03-21T06:27:08;101639.88;;;16.36;100.00
6028;BME280;3042;43.194;27.646;2023-03-21T06:29:35;101635.06;;;15.98;100.00
6028;BME280;3042;43.194;27.646;2023-03-21T06:32:03;101654.56;;;15.63;100.00
6028;BME280;3042;43.194;27.646;2023-03-21T06:34:32;101660.41;;;15.78;100.00
6028;BME280;3042;43.194;27.646;2023-03-21T06:36:59;101654.94;;;15.95;100.00
6028;BME280;3042;43.194;27.646;2023-03-21T06:39:29;101637.84;;;16.03;100.00
6028;BME280;3042;43.194;27.646;2023-03-21T06:41:58;101585.16;;;15.88;100.00
6028;BME280;3042;43.194;27.646;2023-03-21T06:44:28;101620.75;;;16.11;100.00
6028;BME280;3042;43.194;27.646;2023-03-21T06:46:58;101652.59;;;16.51;100.00
6028;BME280;3042;43.194;27.646;2023-03-21T06:49:25;101658.38;;;16.67;100.00
6028;BME280;3042;43.194;27.646;2023-03-21T06:51:53;101495.19;;;15.51;100.00
6028;BME280;3042;43.194;27.646;2023-03-21T06:54:22;101580.41;;;16.51;100.00
6028;BME280;3042;43.194;27.646;2023-03-21T06:56:49;101663.34;;;16.36;100.00
6028;BME280;3042;43.194;27.646;2023-03-21T06:59:16;101647.38;;;16.27;100.00
6028;BME280;3042;43.194;27.646;2023-03-21T07:01:45;101570.47;;;15.90;100.00
6028;BME280;3042;43.194;27.646;2023-03-21T07:04:13;101463.97;;;15.04;100.00
6028;BME280;3042;43.194;27.646;2023-03-21T07:06:40;101626.19;;;16.17;100.00
6028;BME280;3042;43.194;27.646;2023-03-21T07:09:07;101627.75;;;16.12;100.00
6028;BME280;3042;43.194;27.646;2023-03-21T07:11:34;101623.41;;;16.37;100.00
6028;BME280;3042;43.194;27.646;2023-03-21T07:14:02;101584.25;;;16.11;100.00
6028;BME280;3042;43.194;27.646;2023-03-21T07:16:29;101624.63;;;16.48;100.00
6028;BME280;3042;43.194;27.646;2023-03-21T07:18:57;101617.44;;;16.66;100.00
6028;BME280;3042;43.194;27.646;2023-03-21T07:21:24;101619.72;;;16.32;100.00
6028;BME280;3042;43.194;27.646;2023-03-21T07:23:51;101625.84;;;16.32;100.00
6028;BME280;3042;43.194;27.646;2023-03-21T07:26:18;101622.47;;;16.35;100.00
6028;BME280;3042;43.194;27.646;2023-03-21T07:28:45;101386.38;;;15.18;100.00
6028;BME280;3042;43.194;27.646;2023-03-21T07:31:13;101601.28;;;16.51;100.00
6028;BME280;3042;43.194;27.646;2023-03-21T07:33:41;101599.94;;;16.62;100.00
6028;BME280;3042;43.194;27.646;2023-03-21T07:36:11;101592.19;;;16.91;100.00
6028;BME280;3042;43.194;27.646;2023-03-21T07:38:39;101598.78;;;16.80;100.00
6028;BME280;3042;43.194;27.646;2023-03-21T07:41:06;101611.44;;;16.43;100.00
6028;BME280;3042;43.194;27.646;2023-03-21T07:43:34;101228.78;;;14.30;100.00
6028;BME280;3042;43.194;27.646;2023-03-21T07:46:02;101527.31;;;16.23;100.00
6028;BME280;3042;43.194;27.646;2023-03-21T07:48:30;101216.19;;;14.41;100.00
6028;BME280;3042;43.194;27.646;2023-03-21T07:50:58;101517.59;;;16.19;100.00
6028;BME280;3042;43.194;27.646;2023-03-21T07:53:28;101561.81;;;16.67;100.00
6028;BME280;3042;43.194;27.646;2023-03-21T07:55:55;101615.06;;;16.73;100.00
6028;BME280;3042;43.194;27.646;2023-03-21T07:58:22;101433.84;;;16.09;100.00
6028;BME280;3042;43.194;27.646;2023-03-21T08:00:50;101626.59;;;17.34;100.00
6028;BME280;3042;43.194;27.646;2023-03-21T08:03:17;101608.19;;;16.76;100.00
6028;BME280;3042;43.194;27.646;2023-03-21T08:05:45;101639.50;;;17.00;100.00
6028;BME280;3042;43.194;27.646;2023-03-21T08:08:12;101622.16;;;17.02;100.00
6028;BME280;3042;43.194;27.646;2023-03-21T08:10:41;101618.09;;;16.85;100.00
6028;BME280;3042;43.194;27.646;2023-03-21T08:13:08;101615.03;;;17.25;100.00
6028;BME280;3042;43.194;27.646;2023-03-21T08:15:35;101621.25;;;17.29;100.00
6028;BME280;3042;43.194;27.646;2023-03-21T08:18:04;101615.31;;;17.35;100.00
6028;BME280;3042;43.194;27.646;2023-03-21T08:20:31;101605.75;;;17.35;100.00
6028;BME280;3042;43.194;27.646;2023-03-21T08:22:58;101604.81;;;17.62;100.00
6028;BME280;3042;43.194;27.646;2023-03-21T08:25:25;101597.31;;;18.03;100.00
6028;BME280;3042;43.194;27.646;2023-03-21T08:27:53;101476.25;;;17.75;100.00
6028;BME280;3042;43.194;27.646;2023-03-21T08:30:23;101551.25;;;18.43;100.00
6028;BME280;3042;43.194;27.646;2023-03-21T08:32:55;101574.91;;;18.81;100.00
6028;BME280;3042;43.194;27.646;2023-03-21T08:35:23;101581.41;;;18.63;100.00
6028;BME280;3042;43.194;27.646;2023-03-21T08:37:50;101459.28;;;17.29;100.00
6028;BME280;3042;43.194;27.646;2023-03-21T08:40:18;101589.72;;;18.45;100.00
6028;BME280;3042;43.194;27.646;2023-03-21T08:42:45;101588.97;;;18.51;100.00
6028;BME280;3042;43.194;27.646;2023-03-21T08:45:15;101586.59;;;18.60;100.00
6028;BME280;3042;43.194;27.646;2023-03-21T08:47:42;101582.50;;;18.71;100.00
6028;BME280;3042;43.194;27.646;2023-03-21T08:50:11;101545.56;;;18.61;100.00
6028;BME280;3042;43.194;27.646;2023-03-21T08:52:40;101540.22;;;18.21;100.00
6028;BME280;3042;43.194;27.646;2023-03-21T08:55:07;101609.59;;;18.07;100.00
6028;BME280;3042;43.194;27.646;2023-03-21T08:57:35;101601.25;;;18.20;100.00
6028;BME280;3042;43.194;27.646;2023-03-21T09:00:03;101590.84;;;18.56;100.00
6028;BME280;3042;43.194;27.646;2023-03-21T09:02:37;101397.09;;;17.47;100.00
6028;BME280;3042;43.194;27.646;2023-03-21T09:05:04;101586.59;;;18.60;100.00
6028;BME280;3042;43.194;27.646;2023-03-21T09:07:33;101571.09;;;18.69;100.00
6028;BME280;3042;43.194;27.646;2023-03-21T09:10:01;101579.03;;;18.72;100.00
6028;BME280;3042;43.194;27.646;2023-03-21T09:12:28;101548.94;;;17.88;100.00
6028;BME280;3042;43.194;27.646;2023-03-21T09:14:55;101533.94;;;18.48;100.00
6028;BME280;3042;43.194;27.646;2023-03-21T09:17:22;101481.22;;;18.32;100.00
6028;BME280;3042;43.194;27.646;2023-03-21T09:19:53;101575.88;;;19.24;100.00
6028;BME280;3042;43.194;27.646;2023-03-21T09:22:21;101581.19;;;19.27;100.00
6028;BME280;3042;43.194;27.646;2023-03-21T09:24:48;101604.28;;;18.70;100.00
6028;BME280;3042;43.194;27.646;2023-03-21T09:27:15;101606.75;;;17.69;100.00
6028;BME280;3042;43.194;27.646;2023-03-21T09:29:45;101601.06;;;18.14;100.00
6028;BME280;3042;43.194;27.646;2023-03-21T09:32:12;101620.56;;;17.65;100.00
6028;BME280;3042;43.194;27.646;2023-03-21T09:34:39;101375.38;;;16.02;100.00
6028;BME280;3042;43.194;27.646;2023-03-21T09:37:08;101596.50;;;17.18;100.00
6028;BME280;3042;43.194;27.646;2023-03-21T09:39:37;101487.88;;;16.40;100.00
6028;BME280;3042;43.194;27.646;2023-03-21T09:42:15;101594.53;;;17.38;100.00
6028;BME280;3042;43.194;27.646;2023-03-21T09:44:52;101538.38;;;17.54;100.00
6028;BME280;3042;43.194;27.646;2023-03-21T09:47:24;101373.56;;;16.84;100.00
6028;BME280;3042;43.194;27.646;2023-03-21T09:49:57;101483.09;;;16.81;100.00
6028;BME280;3042;43.194;27.646;2023-03-21T09:52:31;101605.66;;;17.61;100.00
6028;BME280;3042;43.194;27.646;2023-03-21T09:54:59;101425.25;;;16.40;100.00
6028;BME280;3042;43.194;27.646;2023-03-21T09:57:33;101597.59;;;17.82;100.00
6028;BME280;3042;43.194;27.646;2023-03-21T10:00:06;101601.59;;;17.72;100.00
6028;BME280;3042;43.194;27.646;2023-03-21T10:02:42;101593.91;;;18.07;100.00
6028;BME280;3042;43.194;27.646;2023-03-21T10:05:16;101580.31;;;18.20;100.00
6028;BME280;3042;43.194;27.646;2023-03-21T10:07:51;101567.28;;;18.22;100.00
6028;BME280;3042;43.194;27.646;2023-03-21T10:10:21;101589.25;;;18.28;100.00
6028;BME280;3042;43.194;27.646;2023-03-21T10:12:52;101583.56;;;18.45;100.00
6028;BME280;3042;43.194;27.646;2023-03-21T10:15:22;101582.66;;;18.43;100.00
6028;BME280;3042;43.194;27.646;2023-03-21T10:17:54;101561.72;;;18.43;100.00
6028;BME280;3042;43.194;27.646;2023-03-21T10:20:23;101583.81;;;18.89;100.00
6028;BME280;3042;43.194;27.646;2023-03-21T10:22:54;101578.97;;;19.06;100.00
6028;BME280;3042;43.194;27.646;2023-03-21T10:25:25;101595.69;;;19.11;100.00
6028;BME280;3042;43.194;27.646;2023-03-21T10:27:53;101317.22;;;17.24;100.00
6028;BME280;3042;43.194;27.646;2023-03-21T10:30:29;101461.00;;;18.63;100.00
6028;BME280;3042;43.194;27.646;2023-03-21T10:33:00;101606.22;;;18.77;100.00
6028;BME280;3042;43.194;27.646;2023-03-21T10:35:30;101598.88;;;18.97;100.00
6028;BME280;3042;43.194;27.646;2023-03-21T10:38:00;101525.59;;;18.64;100.00
6028;BME280;3042;43.194;27.646;2023-03-21T10:40:27;101593.31;;;18.84;100.00
6028;BME280;3042;43.194;27.646;2023-03-21T10:42:55;101439.66;;;17.75;100.00
6028;BME280;3042;43.194;27.646;2023-03-21T10:45:23;101536.03;;;17.95;100.00
6028;BME280;3042;43.194;27.646;2023-03-21T10:47:50;101439.53;;;17.08;100.00
6028;BME280;3042;43.194;27.646;2023-03-21T10:50:19;101609.97;;;18.19;100.00
6028;BME280;3042;43.194;27.646;2023-03-21T10:52:52;101583.88;;;18.24;100.00
6028;BME280;3042;43.194;27.646;2023-03-21T10:55:28;101595.59;;;18.37;100.00
6028;BME280;3042;43.194;27.646;2023-03-21T10:57:59;101591.88;;;18.63;100.00
6028;BME280;3042;43.194;27.646;2023-03-21T11:00:29;101597.38;;;18.39;100.00
6028;BME280;3042;43.194;27.646;2023-03-21T11:03:00;101492.41;;;17.62;100.00
6028;BME280;3042;43.194;27.646;2023-03-21T11:05:33;101558.31;;;18.47;100.00
6028;BME280;3042;43.194;27.646;2023-03-21T11:08:04;101576.59;;;18.79;100.00
6028;BME280;3042;43.194;27.646;2023-03-21T11:10:35;101589.66;;;18.44;100.00
6028;BME280;3042;43.194;27.646;2023-03-21T11:13:06;101573.78;;;18.36;100.00
6028;BME280;3042;43.194;27.646;2023-03-21T11:15:41;101576.84;;;18.54;100.00
6028;BME280;3042;43.194;27.646;2023-03-21T11:18:17;101517.78;;;18.29;100.00
6028;BME280;3042;43.194;27.646;2023-03-21T11:20:51;101246.50;;;16.83;100.00
6028;BME280;3042;43.194;27.646;2023-03-21T11:23:25;101299.19;;;17.00;100.00
6028;BME280;3042;43.194;27.646;2023-03-21T11:25:54;101350.13;;;17.17;100.00
6028;BME280;3042;43.194;27.646;2023-03-21T11:28:24;101576.50;;;18.41;100.00
6028;BME280;3042;43.194;27.646;2023-03-21T11:31:00;101198.16;;;15.73;100.00
6028;BME280;3042;43.194;27.646;2023-03-21T11:33:33;101567.94;;;18.13;100.00
6028;BME280;3042;43.194;27.646;2023-03-21T11:36:03;101564.63;;;18.20;100.00
6028;BME280;3042;43.194;27.646;2023-03-21T11:38:33;101551.81;;;18.66;100.00
6028;BME280;3042;43.194;27.646;2023-03-21T11:41:06;101516.06;;;18.68;100.00
6028;BME280;3042;43.194;27.646;2023-03-21T11:43:35;101253.56;;;17.19;100.00
6028;BME280;3042;43.194;27.646;2023-03-21T11:46:05;101500.53;;;18.38;100.00
6028;BME280;3042;43.194;27.646;2023-03-21T11:48:38;101545.22;;;18.80;100.00
6028;BME280;3042;43.194;27.646;2023-03-21T11:51:12;101550.94;;;18.30;100.00
6028;BME280;3042;43.194;27.646;2023-03-21T11:53:45;101519.16;;;18.15;100.00
6028;BME280;3042;43.194;27.646;2023-03-21T11:56:28;101546.38;;;18.23;100.00
6028;BME280;3042;43.194;27.646;2023-03-21T11:59:17;101498.47;;;18.24;100.00
6028;BME280;3042;43.194;27.646;2023-03-21T12:04:46;101542.69;;;17.53;100.00
6028;BME280;3042;43.194;27.646;2023-03-21T12:07:25;101544.09;;;17.72;100.00
6028;BME280;3042;43.194;27.646;2023-03-21T12:10:01;101536.22;;;17.70;100.00
6028;BME280;3042;43.194;27.646;2023-03-21T12:12:43;101552.59;;;17.35;100.00
6028;BME280;3042;43.194;27.646;2023-03-21T12:15:16;101510.41;;;16.92;100.00
6028;BME280;3042;43.194;27.646;2023-03-21T12:17:51;101538.47;;;17.57;100.00
6028;BME280;3042;43.194;27.646;2023-03-21T12:20:40;101535.16;;;17.64;100.00
6028;BME280;3042;43.194;27.646;2023-03-21T12:23:32;101523.09;;;17.69;100.00
6028;BME280;3042;43.194;27.646;2023-03-21T12:26:12;101520.34;;;17.95;100.00
6028;BME280;3042;43.194;27.646;2023-03-21T12:28:54;101191.06;;;15.98;100.00
6028;BME280;3042;43.194;27.646;2023-03-21T12:31:26;101539.78;;;17.42;100.00
6028;BME280;3042;43.194;27.646;2023-03-21T12:34:07;101539.75;;;17.12;100.00
6028;BME280;3042;43.194;27.646;2023-03-21T12:36:45;101535.06;;;17.00;100.00
6028;BME280;3042;43.194;27.646;2023-03-21T12:39:25;101536.72;;;16.98;100.00
6028;BME280;3042;43.194;27.646;2023-03-21T12:42:07;101511.28;;;16.93;100.00
6028;BME280;3042;43.194;27.646;2023-03-21T12:44:39;101440.22;;;16.18;100.00
6028;BME280;3042;43.194;27.646;2023-03-21T12:47:12;101527.94;;;16.96;100.00
6028;BME280;3042;43.194;27.646;2023-03-21T12:49:45;101474.28;;;16.50;100.00
6028;BME280;3042;43.194;27.646;2023-03-21T12:52:18;101514.47;;;17.11;100.00
6028;BME280;3042;43.194;27.646;2023-03-21T12:54:49;101490.38;;;16.64;100.00
6028;BME280;3042;43.194;27.646;2023-03-21T12:57:20;101521.25;;;16.77;100.00
6028;BME280;3042;43.194;27.646;2023-03-21T12:59:54;101489.84;;;16.47;100.00
6028;BME280;3042;43.194;27.646;2023-03-21T13:02:29;101517.13;;;16.84;100.00
6028;BME280;3042;43.194;27.646;2023-03-21T13:05:03;101538.56;;;16.48;100.00
6028;BME280;3042;43.194;27.646;2023-03-21T13:07:34;101533.53;;;16.54;100.00
6028;BME280;3042;43.194;27.646;2023-03-21T13:10:11;101521.00;;;16.70;100.00
6028;BME280;3042;43.194;27.646;2023-03-21T13:12:47;101517.53;;;16.71;100.00
6028;BME280;3042;43.194;27.646;2023-03-21T13:15:31;101484.31;;;16.38;100.00